sensor_id;sensor_type;location;lat;lon;timestamp;pressure;altitude;pressure_sealevel;temperature;humidity
53647;BME280;39550;52.230;5.194;2022-10-16T00:00:40;100776.88;;;12.07;80.07
53647;BME280;39550;52.230;5.194;2022-10-16T00:03:06;100775.19;;;12.09;79.63
53647;BME280;39550;52.230;5.194;2022-10-16T00:05:32;100776.88;;;12.07;80.20
53647;BME280;39550;52.230;5.194;2022-10-16T00:07:57;100773.44;;;12.08;80.26
53647;BME280;39550;52.230;5.194;2022-10-16T00:10:23;100776.88;;;12.04;79.67
53647;BME280;39550;52.230;5.194;2022-10-16T00:12:49;100780.34;;;12.06;80.14
53647;BME280;39550;52.230;5.194;2022-10-16T00:15:14;100773.44;;;12.06;79.62
53647;BME280;39550;52.230;5.194;2022-10-16T00:17:39;100768.25;;;12.00;79.87
53647;BME280;39550;52.230;5.194;2022-10-16T00:20:05;100782.94;;;12.07;79.70
53647;BME280;39550;52.230;5.194;2022-10-16T00:22:31;100772.59;;;12.06;79.51
53647;BME280;39550;52.230;5.194;2022-10-16T00:24:56;100764.84;;;12.06;79.54
53647;BME280;39550;52.230;5.194;2022-10-16T00:27:21;100763.97;;;12.07;79.50
53647;BME280;39550;52.230;5.194;2022-10-16T00:29:51;100761.38;;;12.07;79.94
53647;BME280;39550;52.230;5.194;2022-10-16T00:32:17;100757.97;;;12.05;80.03
53647;BME280;39550;52.230;5.194;2022-10-16T00:34:43;100765.72;;;12.06;79.36
53647;BME280;39550;52.230;5.194;2022-10-16T00:37:08;100759.69;;;12.06;79.44
53647;BME280;39550;52.230;5.194;2022-10-16T00:39:33;100763.97;;;12.07;79.07
53647;BME280;39550;52.230;5.194;2022-10-16T00:41:58;100768.28;;;12.08;79.79
53647;BME280;39550;52.230;5.194;2022-10-16T00:47:17;100761.38;;;12.07;79.45
53647;BME280;39550;52.230;5.194;2022-10-16T00:49:43;100777.78;;;12.06;79.65
53647;BME280;39550;52.230;5.194;2022-10-16T00:52:10;100768.28;;;12.03;79.33
53647;BME280;39550;52.230;5.194;2022-10-16T00:54:35;100768.28;;;12.05;79.38
53647;BME280;39550;52.230;5.194;2022-10-16T00:57:04;100770.88;;;12.05;79.56
53647;BME280;39550;52.230;5.194;2022-10-16T00:59:36;100768.28;;;12.05;79.20
53647;BME280;39550;52.230;5.194;2022-10-16T01:02:05;100775.19;;;12.06;79.12
53647;BME280;39550;52.230;5.194;2022-10-16T01:04:35;100776.03;;;12.05;79.17
53647;BME280;39550;52.230;5.194;2022-10-16T01:07:51;100778.63;;;12.05;79.11
53647;BME280;39550;52.230;5.194;2022-10-16T01:10:20;100763.13;;;12.05;79.17
53647;BME280;39550;52.230;5.194;2022-10-16T01:13:06;100757.97;;;12.05;79.05
53647;BME280;39550;52.230;5.194;2022-10-16T01:21:16;100757.94;;;12.08;78.96
53647;BME280;39550;52.230;5.194;2022-10-16T01:24:06;100766.56;;;12.07;79.43
53647;BME280;39550;52.230;5.194;2022-10-16T01:32:23;100747.63;;;12.02;78.80
53647;BME280;39550;52.230;5.194;2022-10-16T01:35:17;100758.81;;;12.04;78.85
53647;BME280;39550;52.230;5.194;2022-10-16T01:37:54;100749.34;;;12.06;79.10
53647;BME280;39550;52.230;5.194;2022-10-16T01:40:24;100749.34;;;12.06;79.28
53647;BME280;39550;52.230;5.194;2022-10-16T01:43:12;100756.22;;;12.07;79.20
53647;BME280;39550;52.230;5.194;2022-10-16T01:45:40;100759.69;;;12.06;79.47
53647;BME280;39550;52.230;5.194;2022-10-16T01:48:06;100743.31;;;12.05;78.89
53647;BME280;39550;52.230;5.194;2022-10-16T01:50:37;100749.34;;;12.03;79.35
53647;BME280;39550;52.230;5.194;2022-10-16T01:53:05;100756.22;;;12.04;79.14
53647;BME280;39550;52.230;5.194;2022-10-16T01:55:35;100754.50;;;12.03;79.42
53647;BME280;39550;52.230;5.194;2022-10-16T01:58:03;100763.13;;;12.02;79.08
53647;BME280;39550;52.230;5.194;2022-10-16T02:00:29;100769.16;;;12.02;79.51
53647;BME280;39550;52.230;5.194;2022-10-16T02:02:57;100770.00;;;12.03;79.63
53647;BME280;39550;52.230;5.194;2022-10-16T02:05:26;100747.63;;;11.96;79.49
53647;BME280;39550;52.230;5.194;2022-10-16T02:07:54;100765.69;;;11.97;79.25
53647;BME280;39550;52.230;5.194;2022-10-16T02:10:19;100778.63;;;12.02;79.37
53647;BME280;39550;52.230;5.194;2022-10-16T02:12:59;100777.75;;;12.01;79.28
53647;BME280;39550;52.230;5.194;2022-10-16T02:15:27;100779.47;;;12.01;79.48
53647;BME280;39550;52.230;5.194;2022-10-16T02:17:52;100782.91;;;12.00;79.50
53647;BME280;39550;52.230;5.194;2022-10-16T02:20:21;100789.81;;;11.99;79.58
53647;BME280;39550;52.230;5.194;2022-10-16T02:22:50;100785.50;;;11.98;79.30
53647;BME280;39550;52.230;5.194;2022-10-16T02:25:25;100788.06;;;11.93;79.54
53647;BME280;39550;52.230;5.194;2022-10-16T02:27:59;100802.72;;;11.98;79.37
53647;BME280;39550;52.230;5.194;2022-10-16T02:30:36;100801.00;;;11.97;79.32
53647;BME280;39550;52.230;5.194;2022-10-16T02:33:05;100802.72;;;11.98;79.26
53647;BME280;39550;52.230;5.194;2022-10-16T02:35:32;100801.00;;;11.97;79.98
53647;BME280;39550;52.230;5.194;2022-10-16T02:37:58;100801.84;;;11.97;79.82
53647;BME280;39550;52.230;5.194;2022-10-16T02:40:25;100807.84;;;11.96;79.90
53647;BME280;39550;52.230;5.194;2022-10-16T02:42:52;100814.75;;;11.96;79.37
53647;BME280;39550;52.230;5.194;2022-10-16T02:45:18;100807.88;;;11.98;79.75
53647;BME280;39550;52.230;5.194;2022-10-16T02:47:44;100816.50;;;11.97;79.76
53647;BME280;39550;52.230;5.194;2022-10-16T02:50:10;100807.88;;;11.98;79.73
53647;BME280;39550;52.230;5.194;2022-10-16T02:52:35;100813.06;;;11.98;79.27
53647;BME280;39550;52.230;5.194;2022-10-16T02:55:00;100807.84;;;11.96;79.48
53647;BME280;39550;52.230;5.194;2022-10-16T02:57:26;100807.84;;;11.96;79.39
53647;BME280;39550;52.230;5.194;2022-10-16T02:59:52;100809.59;;;11.99;79.45
53647;BME280;39550;52.230;5.194;2022-10-16T03:02:17;100813.06;;;11.98;79.26
53647;BME280;39550;52.230;5.194;2022-10-16T03:04:42;100807.88;;;11.98;79.64
53647;BME280;39550;52.230;5.194;2022-10-16T03:07:07;100806.16;;;11.97;80.10
53647;BME280;39550;52.230;5.194;2022-10-16T03:09:33;100804.44;;;11.96;79.86
53647;BME280;39550;52.230;5.194;2022-10-16T03:11:58;100799.25;;;11.96;79.79
53647;BME280;39550;52.230;5.194;2022-10-16T03:14:24;100804.44;;;11.96;79.69
53647;BME280;39550;52.230;5.194;2022-10-16T03:16:49;100798.38;;;11.93;79.22
53647;BME280;39550;52.230;5.194;2022-10-16T03:19:16;100792.34;;;11.93;79.60
53647;BME280;39550;52.230;5.194;2022-10-16T03:21:42;100802.69;;;11.95;79.28
53647;BME280;39550;52.230;5.194;2022-10-16T03:24:07;100795.81;;;11.93;79.54
53647;BME280;39550;52.230;5.194;2022-10-16T03:26:32;100800.97;;;11.93;79.32
53647;BME280;39550;52.230;5.194;2022-10-16T03:28:58;100803.53;;;11.93;79.66
53647;BME280;39550;52.230;5.194;2022-10-16T03:31:23;100808.72;;;11.93;79.86
53647;BME280;39550;52.230;5.194;2022-10-16T03:33:48;100797.50;;;11.88;79.53
53647;BME280;39550;52.230;5.194;2022-10-16T03:36:14;100819.03;;;11.93;79.90
53647;BME280;39550;52.230;5.194;2022-10-16T03:38:39;100825.91;;;11.93;79.58
53647;BME280;39550;52.230;5.194;2022-10-16T03:41:04;100827.63;;;11.92;79.77
53647;BME280;39550;52.230;5.194;2022-10-16T03:43:30;100831.94;;;11.93;79.71
53647;BME280;39550;52.230;5.194;2022-10-16T03:45:55;100827.63;;;11.92;80.16
53647;BME280;39550;52.230;5.194;2022-10-16T03:48:20;100830.22;;;11.92;80.03
53647;BME280;39550;52.230;5.194;2022-10-16T03:50:45;100830.22;;;11.92;79.77
53647;BME280;39550;52.230;5.194;2022-10-16T03:53:13;100828.50;;;11.91;79.61
53647;BME280;39550;52.230;5.194;2022-10-16T03:55:41;100837.09;;;11.92;79.96
53647;BME280;39550;52.230;5.194;2022-10-16T03:58:07;100830.22;;;11.92;80.26
53647;BME280;39550;52.230;5.194;2022-10-16T04:00:32;100831.91;;;11.90;79.44
53647;BME280;39550;52.230;5.194;2022-10-16T04:02:58;100845.72;;;11.92;79.53
53647;BME280;39550;52.230;5.194;2022-10-16T04:05:23;100850.88;;;11.92;79.51
53647;BME280;39550;52.230;5.194;2022-10-16T04:07:49;100852.56;;;11.92;79.52
53647;BME280;39550;52.230;5.194;2022-10-16T04:10:14;100843.97;;;11.90;79.51
53647;BME280;39550;52.230;5.194;2022-10-16T04:12:39;100846.56;;;11.91;80.02
53647;BME280;39550;52.230;5.194;2022-10-16T04:15:05;100846.56;;;11.91;79.97
53647;BME280;39550;52.230;5.194;2022-10-16T04:17:30;100859.47;;;11.91;79.80
53647;BME280;39550;52.230;5.194;2022-10-16T04:19:56;100861.22;;;11.92;79.76
53647;BME280;39550;52.230;5.194;2022-10-16T04:22:21;100859.47;;;11.91;79.70
53647;BME280;39550;52.230;5.194;2022-10-16T04:24:46;100859.47;;;11.91;79.65
53647;BME280;39550;52.230;5.194;2022-10-16T04:27:12;100867.22;;;11.91;79.23
53647;BME280;39550;52.230;5.194;2022-10-16T04:29:37;100874.97;;;11.91;80.10
53647;BME280;39550;52.230;5.194;2022-10-16T04:32:02;100882.72;;;11.91;79.91
53647;BME280;39550;52.230;5.194;2022-10-16T04:34:27;100880.13;;;11.90;80.18
53647;BME280;39550;52.230;5.194;2022-10-16T04:36:53;100886.16;;;11.89;79.16
53647;BME280;39550;52.230;5.194;2022-10-16T04:39:18;100894.78;;;11.89;79.68
53647;BME280;39550;52.230;5.194;2022-10-16T04:41:43;100890.44;;;11.82;79.88
53647;BME280;39550;52.230;5.194;2022-10-16T04:44:09;100890.47;;;11.85;80.16
53647;BME280;39550;52.230;5.194;2022-10-16T04:46:34;100888.72;;;11.84;80.10
53647;BME280;39550;52.230;5.194;2022-10-16T04:48:59;100895.63;;;11.88;80.17
53647;BME280;39550;52.230;5.194;2022-10-16T04:51:25;100892.16;;;11.83;79.70
53647;BME280;39550;52.230;5.194;2022-10-16T04:53:51;100895.63;;;11.85;79.74
53647;BME280;39550;52.230;5.194;2022-10-16T04:56:16;100897.31;;;11.86;79.79
53647;BME280;39550;52.230;5.194;2022-10-16T04:58:42;100899.06;;;11.87;80.21
53647;BME280;39550;52.230;5.194;2022-10-16T05:01:07;100911.13;;;11.88;79.98
53647;BME280;39550;52.230;5.194;2022-10-16T05:03:32;100914.53;;;11.84;79.33
53647;BME280;39550;52.230;5.194;2022-10-16T05:05:58;100921.44;;;11.90;79.89
53647;BME280;39550;52.230;5.194;2022-10-16T05:08:23;100922.28;;;11.89;79.85
53647;BME280;39550;52.230;5.194;2022-10-16T05:10:48;100929.19;;;11.88;80.08
53647;BME280;39550;52.230;5.194;2022-10-16T05:13:14;100929.19;;;11.87;79.58
53647;BME280;39550;52.230;5.194;2022-10-16T05:15:39;100939.53;;;11.88;79.59
53647;BME280;39550;52.230;5.194;2022-10-16T05:18:05;100942.09;;;11.88;79.62
53647;BME280;39550;52.230;5.194;2022-10-16T05:20:30;100945.53;;;11.87;79.58
53647;BME280;39550;52.230;5.194;2022-10-16T05:22:55;100938.63;;;11.83;80.07
53647;BME280;39550;52.230;5.194;2022-10-16T05:25:21;100954.16;;;11.89;79.93
53647;BME280;39550;52.230;5.194;2022-10-16T05:27:49;100944.69;;;11.87;79.82
53647;BME280;39550;52.230;5.194;2022-10-16T05:30:16;100957.59;;;11.88;80.22
53647;BME280;39550;52.230;5.194;2022-10-16T05:32:46;100955.00;;;11.85;79.78
53647;BME280;39550;52.230;5.194;2022-10-16T05:35:11;100957.59;;;11.88;80.15
53647;BME280;39550;52.230;5.194;2022-10-16T05:37:36;100965.34;;;11.88;79.44
53647;BME280;39550;52.230;5.194;2022-10-16T05:40:02;100978.25;;;11.88;79.98
53647;BME280;39550;52.230;5.194;2022-10-16T05:42:29;100976.53;;;11.87;79.60
53647;BME280;39550;52.230;5.194;2022-10-16T05:44:54;100975.66;;;11.85;79.80
53647;BME280;39550;52.230;5.194;2022-10-16T05:47:19;100998.91;;;11.87;79.73
53647;BME280;39550;52.230;5.194;2022-10-16T05:49:46;100996.31;;;11.87;79.78
53647;BME280;39550;52.230;5.194;2022-10-16T05:52:11;100986.84;;;11.87;79.88
53647;BME280;39550;52.230;5.194;2022-10-16T05:54:36;100999.75;;;11.87;79.35
53647;BME280;39550;52.230;5.194;2022-10-16T05:57:01;101011.81;;;11.87;79.72
53647;BME280;39550;52.230;5.194;2022-10-16T05:59:27;101007.50;;;11.87;79.36
53647;BME280;39550;52.230;5.194;2022-10-16T06:01:52;101006.66;;;11.88;80.02
53647;BME280;39550;52.230;5.194;2022-10-16T06:04:18;100998.88;;;11.82;79.80
53647;BME280;39550;52.230;5.194;2022-10-16T06:06:44;101015.25;;;11.84;80.06
53647;BME280;39550;52.230;5.194;2022-10-16T06:09:09;101011.81;;;11.84;79.83
53647;BME280;39550;52.230;5.194;2022-10-16T06:11:34;101026.41;;;11.83;80.34
53647;BME280;39550;52.230;5.194;2022-10-16T06:14:01;101014.34;;;11.82;80.08
53647;BME280;39550;52.230;5.194;2022-10-16T06:16:31;101014.41;;;11.85;80.33
53647;BME280;39550;52.230;5.194;2022-10-16T06:18:57;101023.00;;;11.87;79.80
53647;BME280;39550;52.230;5.194;2022-10-16T06:21:25;101021.28;;;11.86;80.15
53647;BME280;39550;52.230;5.194;2022-10-16T06:23:51;101023.84;;;11.85;80.09
53647;BME280;39550;52.230;5.194;2022-10-16T06:26:20;101016.09;;;11.83;80.46
53647;BME280;39550;52.230;5.194;2022-10-16T06:28:46;101012.66;;;11.84;79.98
53647;BME280;39550;52.230;5.194;2022-10-16T06:31:13;101008.34;;;11.85;79.70
53647;BME280;39550;52.230;5.194;2022-10-16T06:33:39;101016.97;;;11.84;80.12
53647;BME280;39550;52.230;5.194;2022-10-16T06:36:12;101020.41;;;11.84;80.46
53647;BME280;39550;52.230;5.194;2022-10-16T06:38:39;101031.59;;;11.83;79.82
53647;BME280;39550;52.230;5.194;2022-10-16T06:41:06;101018.66;;;11.82;80.16
53647;BME280;39550;52.230;5.194;2022-10-16T06:43:32;101041.06;;;11.86;79.79
53647;BME280;39550;52.230;5.194;2022-10-16T06:45:59;101028.16;;;11.81;79.94
53647;BME280;39550;52.230;5.194;2022-10-16T06:48:25;101035.91;;;11.83;79.99
53647;BME280;39550;52.230;5.194;2022-10-16T06:51:02;101039.34;;;11.86;80.30
53647;BME280;39550;52.230;5.194;2022-10-16T06:53:31;101035.06;;;11.85;80.04
53647;BME280;39550;52.230;5.194;2022-10-16T06:55:56;101031.59;;;11.83;79.80
53647;BME280;39550;52.230;5.194;2022-10-16T06:58:22;101041.06;;;11.87;80.04
53647;BME280;39550;52.230;5.194;2022-10-16T07:00:47;101041.09;;;11.89;80.00
53647;BME280;39550;52.230;5.194;2022-10-16T07:03:13;101052.25;;;11.88;80.10
53647;BME280;39550;52.230;5.194;2022-10-16T07:05:40;101056.56;;;11.86;79.76
53647;BME280;39550;52.230;5.194;2022-10-16T07:08:06;101067.75;;;11.86;80.24
53647;BME280;39550;52.230;5.194;2022-10-16T07:10:32;101052.25;;;11.83;79.89
53647;BME280;39550;52.230;5.194;2022-10-16T07:12:57;101077.22;;;11.87;79.96
53647;BME280;39550;52.230;5.194;2022-10-16T07:15:24;101081.53;;;11.85;79.92
53647;BME280;39550;52.230;5.194;2022-10-16T07:17:49;101088.44;;;11.89;79.76
53647;BME280;39550;52.230;5.194;2022-10-16T07:20:15;101089.31;;;11.91;80.54
53647;BME280;39550;52.230;5.194;2022-10-16T07:22:40;101103.06;;;11.90;80.40
53647;BME280;39550;52.230;5.194;2022-10-16T07:25:06;101103.06;;;11.89;80.46
53647;BME280;39550;52.230;5.194;2022-10-16T07:27:31;101103.06;;;11.87;80.64
53647;BME280;39550;52.230;5.194;2022-10-16T07:29:56;101107.38;;;11.87;80.25
53647;BME280;39550;52.230;5.194;2022-10-16T07:32:22;101107.34;;;11.85;80.52
53647;BME280;39550;52.230;5.194;2022-10-16T07:34:47;101122.88;;;11.88;80.71
53647;BME280;39550;52.230;5.194;2022-10-16T07:37:12;101116.81;;;11.86;80.46
53647;BME280;39550;52.230;5.194;2022-10-16T07:39:38;101126.28;;;11.87;80.18
53647;BME280;39550;52.230;5.194;2022-10-16T07:42:03;101139.22;;;11.87;80.31
53647;BME280;39550;52.230;5.194;2022-10-16T07:44:28;101145.25;;;11.89;80.29
53647;BME280;39550;52.230;5.194;2022-10-16T07:46:53;101164.19;;;11.91;79.79
53647;BME280;39550;52.230;5.194;2022-10-16T07:49:19;101167.63;;;11.92;79.80
53647;BME280;39550;52.230;5.194;2022-10-16T07:51:44;101164.25;;;11.96;80.14
53647;BME280;39550;52.230;5.194;2022-10-16T07:54:10;101156.44;;;11.91;80.04
53647;BME280;39550;52.230;5.194;2022-10-16T07:56:35;101164.25;;;11.95;80.44
53647;BME280;39550;52.230;5.194;2022-10-16T07:59:00;101167.72;;;11.97;80.14
53647;BME280;39550;52.230;5.194;2022-10-16T08:01:26;101165.13;;;11.97;80.01
53647;BME280;39550;52.230;5.194;2022-10-16T08:03:51;101173.72;;;11.96;80.13
53647;BME280;39550;52.230;5.194;2022-10-16T08:06:19;101178.06;;;11.97;80.07
53647;BME280;39550;52.230;5.194;2022-10-16T08:08:44;101179.78;;;11.98;79.98
53647;BME280;39550;52.230;5.194;2022-10-16T08:11:09;101186.66;;;11.99;79.95
53647;BME280;39550;52.230;5.194;2022-10-16T08:13:36;101184.09;;;12.00;79.78
53647;BME280;39550;52.230;5.194;2022-10-16T08:16:01;101193.56;;;12.00;80.24
53647;BME280;39550;52.230;5.194;2022-10-16T08:18:27;101191.81;;;11.96;80.25
53647;BME280;39550;52.230;5.194;2022-10-16T08:20:57;101197.03;;;12.02;79.37
53647;BME280;39550;52.230;5.194;2022-10-16T08:23:23;101207.38;;;12.02;79.85
53647;BME280;39550;52.230;5.194;2022-10-16T08:25:51;101209.97;;;12.03;80.11
53647;BME280;39550;52.230;5.194;2022-10-16T08:28:16;101203.06;;;12.04;80.08
53647;BME280;39550;52.230;5.194;2022-10-16T08:30:42;101205.66;;;12.04;79.58
53647;BME280;39550;52.230;5.194;2022-10-16T08:33:07;101209.13;;;12.06;79.60
53647;BME280;39550;52.230;5.194;2022-10-16T08:35:33;101216.00;;;12.07;79.49
53647;BME280;39550;52.230;5.194;2022-10-16T08:37:58;101212.56;;;12.08;79.56
53647;BME280;39550;52.230;5.194;2022-10-16T08:40:26;101214.31;;;12.09;79.61
53647;BME280;39550;52.230;5.194;2022-10-16T08:45:39;101219.50;;;12.15;79.22
53647;BME280;39550;52.230;5.194;2022-10-16T08:50:42;101223.06;;;12.30;79.93
53647;BME280;39550;52.230;5.194;2022-10-16T08:53:14;101236.00;;;12.30;80.85
53647;BME280;39550;52.230;5.194;2022-10-16T08:55:46;101236.00;;;12.30;81.13
53647;BME280;39550;52.230;5.194;2022-10-16T08:58:19;101248.09;;;12.34;81.51
53647;BME280;39550;52.230;5.194;2022-10-16T09:00:47;101245.50;;;12.37;81.74
53647;BME280;39550;52.230;5.194;2022-10-16T09:11:32;101270.63;;;12.53;82.12
53647;BME280;39550;52.230;5.194;2022-10-16T09:14:22;101266.31;;;12.55;82.88
53647;BME280;39550;52.230;5.194;2022-10-16T09:16:59;101272.34;;;12.56;82.13
53647;BME280;39550;52.230;5.194;2022-10-16T09:19:36;101283.56;;;12.61;81.67
53647;BME280;39550;52.230;5.194;2022-10-16T09:22:11;101292.16;;;12.58;81.68
53647;BME280;39550;52.230;5.194;2022-10-16T09:24:39;101289.63;;;12.60;82.20
53647;BME280;39550;52.230;5.194;2022-10-16T09:27:04;101290.41;;;12.51;82.16
53647;BME280;39550;52.230;5.194;2022-10-16T09:29:29;101295.66;;;12.60;82.16
53647;BME280;39550;52.230;5.194;2022-10-16T09:31:57;101295.63;;;12.57;81.84
53647;BME280;39550;52.230;5.194;2022-10-16T09:34:36;101296.47;;;12.56;82.28
53647;BME280;39550;52.230;5.194;2022-10-16T09:37:10;101300.00;;;12.66;81.45
53647;BME280;39550;52.230;5.194;2022-10-16T09:39:51;101304.34;;;12.72;81.45
53647;BME280;39550;52.230;5.194;2022-10-16T09:42:30;101302.59;;;12.71;82.10
53647;BME280;39550;52.230;5.194;2022-10-16T09:44:57;101310.38;;;12.72;82.58
53647;BME280;39550;52.230;5.194;2022-10-16T09:47:24;101300.91;;;12.73;81.55
53647;BME280;39550;52.230;5.194;2022-10-16T09:49:56;101310.41;;;12.75;81.38
53647;BME280;39550;52.230;5.194;2022-10-16T09:52:23;101309.53;;;12.75;81.79
53647;BME280;39550;52.230;5.194;2022-10-16T09:57:18;101306.97;;;12.81;81.90
53647;BME280;39550;52.230;5.194;2022-10-16T09:59:54;101312.19;;;12.86;81.82
53647;BME280;39550;52.230;5.194;2022-10-16T10:02:36;101316.50;;;12.85;81.04
53647;BME280;39550;52.230;5.194;2022-10-16T10:05:17;101307.00;;;12.89;81.41
53647;BME280;39550;52.230;5.194;2022-10-16T10:07:44;101324.31;;;12.98;81.26
53647;BME280;39550;52.230;5.194;2022-10-16T10:10:28;101309.69;;;13.03;81.57
53647;BME280;39550;52.230;5.194;2022-10-16T10:12:55;101318.31;;;13.02;81.29
53647;BME280;39550;52.230;5.194;2022-10-16T10:15:21;101322.59;;;12.98;80.54
53647;BME280;39550;52.230;5.194;2022-10-16T10:17:51;101323.50;;;13.02;80.70
53647;BME280;39550;52.230;5.194;2022-10-16T10:20:27;101326.94;;;13.04;80.78
53647;BME280;39550;52.230;5.194;2022-10-16T10:22:53;101325.25;;;13.07;79.90
53647;BME280;39550;52.230;5.194;2022-10-16T10:25:42;101327.84;;;13.15;80.14
53647;BME280;39550;52.230;5.194;2022-10-16T10:28:20;101340.84;;;13.18;79.55
53647;BME280;39550;52.230;5.194;2022-10-16T10:30:54;101347.75;;;13.22;80.30
53647;BME280;39550;52.230;5.194;2022-10-16T10:33:41;101358.97;;;13.23;80.01
53647;BME280;39550;52.230;5.194;2022-10-16T10:38:54;101359.84;;;13.26;79.81
53647;BME280;39550;52.230;5.194;2022-10-16T10:46:51;101347.91;;;13.50;79.69
53647;BME280;39550;52.230;5.194;2022-10-16T10:57:31;101362.53;;;13.40;78.97
53647;BME280;39550;52.230;5.194;2022-10-16T11:00:10;101367.72;;;13.45;78.66
53647;BME280;39550;52.230;5.194;2022-10-16T11:03:18;101378.94;;;13.47;78.52
53647;BME280;39550;52.230;5.194;2022-10-16T11:05:49;101378.94;;;13.42;78.82
53647;BME280;39550;52.230;5.194;2022-10-16T11:08:25;101384.94;;;13.35;79.15
53647;BME280;39550;52.230;5.194;2022-10-16T11:13:29;101383.16;;;13.33;78.87
53647;BME280;39550;52.230;5.194;2022-10-16T11:16:01;101390.94;;;13.33;78.28
53647;BME280;39550;52.230;5.194;2022-10-16T11:18:49;101389.28;;;13.41;78.28
53647;BME280;39550;52.230;5.194;2022-10-16T11:21:19;101391.03;;;13.48;77.91
53647;BME280;39550;52.230;5.194;2022-10-16T11:23:53;101387.59;;;13.52;77.18
53647;BME280;39550;52.230;5.194;2022-10-16T11:26:24;101389.34;;;13.59;77.43
53647;BME280;39550;52.230;5.194;2022-10-16T11:28:56;101396.28;;;13.60;77.08
53647;BME280;39550;52.230;5.194;2022-10-16T11:31:29;101395.44;;;13.69;76.29
53647;BME280;39550;52.230;5.194;2022-10-16T11:34:15;101403.25;;;13.74;75.91
53647;BME280;39550;52.230;5.194;2022-10-16T11:49:39;101404.97;;;13.81;72.54
53647;BME280;39550;52.230;5.194;2022-10-16T11:54:55;101398.09;;;13.88;72.13
53647;BME280;39550;52.230;5.194;2022-10-16T11:57:44;101417.09;;;13.91;71.55
53647;BME280;39550;52.230;5.194;2022-10-16T12:00:21;101410.22;;;13.93;72.39
53647;BME280;39550;52.230;5.194;2022-10-16T12:05:35;101422.25;;;13.79;72.55
53647;BME280;39550;52.230;5.194;2022-10-16T12:08:13;101422.22;;;13.76;72.11
53647;BME280;39550;52.230;5.194;2022-10-16T12:10:41;101416.19;;;13.80;71.90
53647;BME280;39550;52.230;5.194;2022-10-16T12:16:23;101428.31;;;13.86;71.23
53647;BME280;39550;52.230;5.194;2022-10-16T12:19:07;101425.75;;;13.95;69.81
53647;BME280;39550;52.230;5.194;2022-10-16T12:21:34;101422.31;;;14.02;69.15
53647;BME280;39550;52.230;5.194;2022-10-16T12:24:02;101425.78;;;14.06;69.53
53647;BME280;39550;52.230;5.194;2022-10-16T12:26:34;101429.25;;;14.08;69.50
53647;BME280;39550;52.230;5.194;2022-10-16T12:29:35;101435.28;;;14.04;69.20
53647;BME280;39550;52.230;5.194;2022-10-16T12:32:04;101427.50;;;14.04;68.21
53647;BME280;39550;52.230;5.194;2022-10-16T12:34:42;101449.13;;;14.12;68.88
53647;BME280;39550;52.230;5.194;2022-10-16T12:37:34;101442.22;;;14.19;69.39
53647;BME280;39550;52.230;5.194;2022-10-16T12:40:13;101437.91;;;14.18;68.86
53647;BME280;39550;52.230;5.194;2022-10-16T12:42:39;101435.34;;;14.25;68.20
53647;BME280;39550;52.230;5.194;2022-10-16T12:45:27;101437.03;;;14.22;68.93
53647;BME280;39550;52.230;5.194;2022-10-16T12:47:55;101437.06;;;14.28;69.37
53647;BME280;39550;52.230;5.194;2022-10-16T12:50:31;101436.22;;;14.30;69.69
53647;BME280;39550;52.230;5.194;2022-10-16T12:52:58;101443.97;;;14.26;70.04
53647;BME280;39550;52.230;5.194;2022-10-16T12:55:24;101444.81;;;14.17;69.38
53647;BME280;39550;52.230;5.194;2022-10-16T12:58:36;101449.16;;;14.23;69.45
53647;BME280;39550;52.230;5.194;2022-10-16T13:01:06;101442.22;;;14.22;70.42
53647;BME280;39550;52.230;5.194;2022-10-16T13:06:35;101444.81;;;14.20;69.71
53647;BME280;39550;52.230;5.194;2022-10-16T13:12:00;101443.13;;;14.22;69.36
53647;BME280;39550;52.230;5.194;2022-10-16T13:14:46;101447.44;;;14.29;69.49
53647;BME280;39550;52.230;5.194;2022-10-16T13:25:26;101463.88;;;14.35;70.01
53647;BME280;39550;52.230;5.194;2022-10-16T13:28:04;101458.66;;;14.22;70.37
53647;BME280;39550;52.230;5.194;2022-10-16T13:30:40;101461.22;;;14.14;70.62
53647;BME280;39550;52.230;5.194;2022-10-16T13:35:35;101481.94;;;14.05;71.72
53647;BME280;39550;52.230;5.194;2022-10-16T13:38:10;101484.50;;;14.02;72.13
53647;BME280;39550;52.230;5.194;2022-10-16T13:40:51;101490.56;;;14.01;72.45
53647;BME280;39550;52.230;5.194;2022-10-16T13:43:23;101493.13;;;14.00;72.10
53647;BME280;39550;52.230;5.194;2022-10-16T13:45:58;101485.34;;;13.93;72.75
53647;BME280;39550;52.230;5.194;2022-10-16T13:48:23;101488.78;;;13.95;73.02
53647;BME280;39550;52.230;5.194;2022-10-16T13:51:20;101487.94;;;13.93;72.41
53647;BME280;39550;52.230;5.194;2022-10-16T13:53:45;101484.53;;;14.07;71.66
53647;BME280;39550;52.230;5.194;2022-10-16T13:56:14;101494.91;;;14.14;71.17
53647;BME280;39550;52.230;5.194;2022-10-16T13:58:40;101483.72;;;14.22;70.39
53647;BME280;39550;52.230;5.194;2022-10-16T14:01:29;101484.59;;;14.31;69.25
53647;BME280;39550;52.230;5.194;2022-10-16T14:04:04;101486.34;;;14.29;70.01
53647;BME280;39550;52.230;5.194;2022-10-16T14:06:31;101488.94;;;14.36;69.48
53647;BME280;39550;52.230;5.194;2022-10-16T14:09:12;101495.00;;;14.35;69.35
53647;BME280;39550;52.230;5.194;2022-10-16T14:11:46;101500.16;;;14.31;70.08
53647;BME280;39550;52.230;5.194;2022-10-16T14:14:14;101505.34;;;14.28;70.00
53647;BME280;39550;52.230;5.194;2022-10-16T14:16:41;101502.75;;;14.25;69.87
53647;BME280;39550;52.230;5.194;2022-10-16T14:19:18;101500.16;;;14.25;69.19
53647;BME280;39550;52.230;5.194;2022-10-16T14:21:44;101479.41;;;14.19;70.33
53647;BME280;39550;52.230;5.194;2022-10-16T14:24:13;101490.63;;;14.21;71.42
53647;BME280;39550;52.230;5.194;2022-10-16T14:26:47;101484.59;;;14.19;70.50
53647;BME280;39550;52.230;5.194;2022-10-16T14:29:17;101484.59;;;14.19;70.57